Time;durP1;ratioP1;P1;durP2;ratioP2;P2;SDS_P1;SDS_P2;PMS_P1;PMS_P2;Temp;Humidity;BMP_temperature;BMP_pressure;BME280_temperature;BME280_humidity;BME280_pressure;Samples;Min_cycle;Max_cycle;Signal;HPM_P1;HPM_P2
2022/05/08 00:00:59;;;;;;;31.75;6.85;;;;;;;;;;6128263;23;20017;-89
2022/05/08 00:03:25;;;;;;;27.40;6.18;;;;;;;;;;6101589;23;20024;-87
2022/05/08 00:05:52;;;;;;;30.83;6.80;;;;;;;;;;6125147;23;20020;-89
2022/05/08 00:08:18;;;;;;;37.15;7.07;;;;;;;;;;6124956;23;20013;-90
2022/05/08 00:10:44;;;;;;;31.63;6.90;;;;;;;;;;6101994;23;20016;-88
2022/05/08 00:13:10;;;;;;;27.98;6.50;;;;;;;;;;6102013;23;20048;-88
2022/05/08 00:15:36;;;;;;;27.27;5.93;;;;;;;;;;6101426;23;20024;-89
2022/05/08 00:18:03;;;;;;;27.02;6.00;;;;;;;;;;6118784;23;20276;-89
2022/05/08 00:20:29;;;;;;;27.83;6.43;;;;;;;;;;6116869;23;20046;-89
2022/05/08 00:22:55;;;;;;;33.65;6.43;;;;;;;;;;6138186;23;20021;-89
2022/05/08 00:25:21;;;;;;;22.42;5.93;;;;;;;;;;6141867;23;20010;-88
2022/05/08 00:27:47;;;;;;;32.45;6.72;;;;;;;;;;6091718;23;20014;-89
2022/05/08 00:30:14;;;;;;;38.97;7.05;;;19.60;99.90;;;;;;6139355;23;20046;-89
2022/05/08 00:32:40;;;;;;;28.88;6.25;;;8.10;99.90;;;;;;6066530;23;20534;-89
2022/05/08 00:35:08;;;;;;;24.38;6.13;;;7.80;99.90;;;;;;6065525;23;20029;-89
2022/05/08 00:37:34;;;;;;;29.27;5.63;;;7.80;99.90;;;;;;6092894;23;20021;-89
2022/05/08 00:40:00;;;;;;;32.83;7.22;;;7.70;99.90;;;;;;6094168;23;20037;-88
2022/05/08 00:42:27;;;;;;;23.10;5.57;;;7.70;99.90;;;;;;6117483;23;20124;-89
2022/05/08 00:44:53;;;;;;;26.27;6.13;;;7.70;99.90;;;;;;6143064;23;20041;-89
2022/05/08 00:47:18;;;;;;;25.67;5.90;;;7.60;99.90;;;;;;6068662;23;20069;-89
2022/05/08 00:49:44;;;;;;;27.05;6.15;;;7.60;99.90;;;;;;6069261;23;20014;-89
2022/05/08 00:52:12;;;;;;;32.10;6.47;;;7.60;99.90;;;;;;6118751;23;20029;-89
2022/05/08 00:54:38;;;;;;;33.22;6.25;;;7.60;99.90;;;;;;6092948;23;20085;-89
2022/05/08 00:57:07;;;;;;;23.92;5.97;;;7.50;99.90;;;;;;6071383;23;20014;-90
2022/05/08 00:59:34;;;;;;;23.65;5.45;;;7.50;99.90;;;;;;6073010;23;20366;-90
2022/05/08 01:02:00;;;;;;;30.02;5.65;;;7.50;99.90;;;;;;6074632;23;20018;-90
2022/05/08 01:04:26;;;;;;;26.63;5.75;;;;;;;;;;6097704;23;20016;-90
2022/05/08 01:06:52;;;;;;;36.53;6.97;;;;;;;;;;6146281;23;20014;-90
2022/05/08 01:09:19;;;;;;;27.55;5.82;;;;;;;;;;6117194;23;20785;-89
2022/05/08 01:11:45;;;;;;;23.77;6.35;;;;;;;;;;6140406;23;20785;-90
2022/05/08 01:14:13;;;;;;;25.98;5.78;;;;;;;;;;6142023;23;20617;-92
2022/05/08 01:16:40;;;;;;;25.13;6.45;;;;;;;;;;6143671;23;20017;-89
2022/05/08 01:19:06;;;;;;;25.98;6.25;;;;;;;;;;6142994;23;20022;-90
2022/05/08 01:21:37;;;;;;;32.22;6.55;;;;;;;;;;6117009;23;20024;-90
2022/05/08 01:24:03;;;;;;;34.30;6.07;;;;;;;;;;6142272;23;20329;-90
2022/05/08 01:26:29;;;;;;;26.63;5.78;;;;;;;;;;6096378;23;20094;-90
2022/05/08 01:28:55;;;;;;;32.45;6.22;;;7.50;99.90;;;;;;6098761;23;20014;-91
2022/05/08 01:31:21;;;;;;;26.33;6.05;;;7.30;99.90;;;;;;6070139;23;20097;-89
2022/05/08 01:33:47;;;;;;;29.40;6.28;;;7.30;99.90;;;;;;6071868;23;20022;-91
2022/05/08 01:36:13;;;;;;;30.20;5.72;;;7.30;99.90;;;;;;6070398;23;20018;-90
2022/05/08 01:38:39;;;;;;;27.90;6.13;;;7.20;99.90;;;;;;6071843;23;20014;-90
2022/05/08 01:41:04;;;;;;;30.52;5.65;;;7.20;99.90;;;;;;6094595;23;20024;-92
2022/05/08 01:43:36;;;;;;;28.23;5.55;;;7.10;99.90;;;;;;6094553;23;20053;-90
2022/05/08 01:46:06;;;;;;;22.58;5.43;;;7.10;99.90;;;;;;6071287;23;20013;-90
2022/05/08 01:48:33;;;;;;;26.77;6.50;;;7.10;99.90;;;;;;6096921;23;20049;-90
2022/05/08 01:51:01;;;;;;;24.45;6.45;;;7.10;99.90;;;;;;6096441;23;20463;-91
2022/05/08 01:53:34;;;;;;;27.73;5.35;;;7.00;99.90;;;;;;6119847;23;20013;-90
2022/05/08 01:56:02;;;;;;;33.83;7.72;;;7.00;99.90;;;;;;6071109;23;20014;-90
2022/05/08 01:58:29;;;;;;;30.42;6.10;;;7.00;99.90;;;;;;6095841;23;20026;-90
2022/05/08 02:00:57;;;;;;;28.27;6.30;;;7.00;99.90;;;;;;6097198;23;20212;-90
2022/05/08 02:03:24;;;;;;;31.67;7.20;;;6.90;99.90;;;;;;6100209;23;20127;-91
2022/05/08 02:05:51;;;;;;;28.83;5.78;;;6.90;99.90;;;;;;6097215;23;20013;-91
2022/05/08 02:08:18;;;;;;;29.63;6.43;;;6.90;99.90;;;;;;6072738;23;20013;-91
2022/05/08 02:10:45;;;;;;;31.65;6.25;;;6.90;99.90;;;;;;6097640;23;20042;-90
2022/05/08 02:13:11;;;;;;;24.05;6.00;;;6.90;99.90;;;;;;6121294;23;20014;-90
2022/05/08 02:15:38;;;;;;;21.52;6.18;;;6.90;99.90;;;;;;6074249;23;20057;-92
2022/05/08 02:18:06;;;;;;;22.15;6.25;;;6.80;99.90;;;;;;6073140;23;20014;-91
2022/05/08 02:20:33;;;;;;;27.63;6.85;;;6.80;99.90;;;;;;6122051;23;20450;-90
2022/05/08 02:22:59;;;;;;;29.35;5.85;;;6.80;99.90;;;;;;6072524;23;20855;-89
2022/05/08 02:25:25;;;;;;;23.73;5.63;;;6.70;99.90;;;;;;6096564;23;20269;-90
2022/05/08 02:27:51;;;;;;;22.92;5.32;;;6.70;99.90;;;;;;6072938;23;20014;-90
2022/05/08 02:30:20;;;;;;;23.23;6.40;;;6.70;99.90;;;;;;6097102;23;20014;-91
2022/05/08 02:32:47;;;;;;;29.17;5.60;;;6.70;99.90;;;;;;6122106;23;20028;-89
2022/05/08 02:35:13;;;;;;;23.23;5.50;;;6.70;99.90;;;;;;6122315;23;20092;-91
2022/05/08 02:37:43;;;;;;;26.27;5.97;;;6.60;99.90;;;;;;6125809;23;20018;-90
2022/05/08 02:40:10;;;;;;;19.67;5.57;;;6.60;99.90;;;;;;6122423;23;20014;-92
2022/05/08 02:42:40;;;;;;;23.80;5.55;;;6.50;99.90;;;;;;6074562;23;20066;-90
2022/05/08 02:45:08;;;;;;;28.45;6.07;;;6.50;99.90;;;;;;6098534;23;20471;-90
2022/05/08 02:47:35;;;;;;;19.42;5.70;;;6.40;99.90;;;;;;6122824;23;20010;-90
2022/05/08 02:50:03;;;;;;;21.67;5.20;;;6.30;99.90;;;;;;6097562;23;20542;-93
2022/05/08 02:52:31;;;;;;;26.15;5.90;;;6.30;99.90;;;;;;6122878;23;20332;-90
2022/05/08 02:58:32;;;;;;;20.40;6.00;;;6.30;99.90;;;;;;6098581;23;20098;-90
2022/05/08 03:00:34;;;;;;;27.13;6.35;;;6.30;99.90;;;;;;6123880;23;20054;-90
2022/05/08 03:03:02;;;;;;;25.30;6.00;;;6.20;99.90;;;;;;6074561;23;20021;-90
2022/05/08 03:05:28;;;;;;;22.05;5.32;;;6.20;99.90;;;;;;6098449;23;20010;-90
2022/05/08 03:07:54;;;;;;;25.60;6.80;;;6.20;99.90;;;;;;6123200;23;20355;-89
2022/05/08 03:10:20;;;;;;;19.88;6.07;;;6.20;99.90;;;;;;6098678;23;20449;-90
2022/05/08 03:12:46;;;;;;;22.20;5.75;;;6.20;99.90;;;;;;6104577;23;20014;-90
2022/05/08 03:15:12;;;;;;;28.23;5.75;;;6.10;99.90;;;;;;6099001;23;20316;-89
2022/05/08 03:17:38;;;;;;;20.10;5.13;;;;;;;;;;6074559;23;20029;-90
2022/05/08 03:20:05;;;;;;;21.98;6.00;;;;;;;;;;6122559;23;20088;-90
2022/05/08 03:22:31;;;;;;;20.75;5.53;;;;;;;;;;6121732;23;20352;-89
2022/05/08 03:24:59;;;;;;;25.35;5.63;;;;;;;;;;6098876;23;20017;-89
2022/05/08 03:27:25;;;;;;;20.73;5.68;;;;;;;;;;6148009;23;20072;-89
2022/05/08 03:29:52;;;;;;;21.45;4.78;;;;;;;;;;6099004;23;20010;-89
2022/05/08 03:32:18;;;;;;;16.98;4.35;;;;;;;;;;6147671;23;20017;-90
2022/05/08 03:34:45;;;;;;;19.80;5.07;;;;;;;;;;6122752;23;20020;-91
2022/05/08 03:37:11;;;;;;;17.73;5.35;;;;;;;;;;6147519;23;20018;-90
2022/05/08 03:39:37;;;;;;;20.45;5.10;;;;;;;;;;6146652;23;20013;-90
2022/05/08 03:42:04;;;;;;;23.20;5.07;;;;;;;;;;6122710;23;20474;-91
2022/05/08 03:44:30;;;;;;;16.88;4.55;;;;;;;;;;6098503;23;20331;-90
2022/05/08 03:46:59;;;;;;;17.10;5.13;;;;;;;;;;6148075;23;20328;-90
2022/05/08 03:49:26;;;;;;;23.05;4.93;;;;;;;;;;6151670;23;20018;-91
2022/05/08 03:51:52;;;;;;;17.30;5.05;;;;;;;;;;6122423;23;20048;-91
2022/05/08 03:54:19;;;;;;;15.68;4.47;;;;;;;;;;6122788;23;20017;-90
2022/05/08 03:56:51;;;;;;;18.50;4.55;;;;;;;;;;6099219;23;20016;-90
2022/05/08 03:59:18;;;;;;;17.20;4.82;;;;;;;;;;6123128;23;20014;-90
2022/05/08 04:01:47;;;;;;;19.02;5.65;;;;;;;;;;6147386;23;20024;-90
2022/05/08 04:04:14;;;;;;;17.48;4.90;;;;;;;;;;6147287;23;20412;-89
2022/05/08 04:06:40;;;;;;;20.33;5.35;;;;;;;;;;6099251;23;20014;-90
2022/05/08 04:09:10;;;;;;;21.50;4.90;;;;;;;;;;6146573;23;20347;-90
2022/05/08 04:11:36;;;;;;;20.23;4.57;;;;;;;;;;6147676;23;20025;-90
2022/05/08 04:14:03;;;;;;;20.30;5.13;;;;;;;;;;6099214;23;20018;-90
2022/05/08 04:16:30;;;;;;;19.80;5.53;;;;;;;;;;6122531;23;20041;-90
2022/05/08 04:18:56;;;;;;;14.75;4.50;;;;;;;;;;6097222;23;20022;-89
2022/05/08 04:21:23;;;;;;;22.15;5.13;;;;;;;;;;6097478;23;20025;-89
2022/05/08 04:26:34;;;;;;;21.58;5.18;;;;;;;;;;6126383;23;20439;-90
2022/05/08 04:29:00;;;;;;;27.10;5.60;;;;;;;;;;6097245;23;20467;-90
2022/05/08 04:31:27;;;;;;;22.52;5.53;;;;;;;;;;6145594;23;20014;-90
2022/05/08 04:33:53;;;;;;;15.02;4.88;;;;;;;;;;6146632;23;20021;-89
2022/05/08 04:36:19;;;;;;;19.33;5.38;;;;;;;;;;6098185;23;20131;-89
2022/05/08 04:38:46;;;;;;;20.08;5.07;;;;;;;;;;6098349;23;20343;-91
2022/05/08 04:41:12;;;;;;;20.33;6.50;;;;;;;;;;6146545;23;20025;-90
2022/05/08 04:43:39;;;;;;;18.33;5.43;;;;;;;;;;6145656;23;20340;-90
2022/05/08 04:46:05;;;;;;;12.63;4.32;;;;;;;;;;6121156;23;20118;-90
2022/05/08 04:48:31;;;;;;;15.05;4.93;;;;;;;;;;6145871;23;20017;-89
2022/05/08 04:50:58;;;;;;;16.48;4.88;;;;;;;;;;6145801;23;20049;-90
2022/05/08 04:53:24;;;;;;;16.55;5.28;;;;;;;;;;6144571;23;20022;-89
2022/05/08 04:55:50;;;;;;;15.43;5.32;;;;;;;;;;6145132;23;20049;-89
2022/05/08 04:58:16;;;;;;;21.35;5.38;;;;;;;;;;6101433;23;20018;-91
2022/05/08 05:00:42;;;;;;;16.70;5.80;;;;;;;;;;6096482;23;20014;-90
2022/05/08 05:03:09;;;;;;;13.02;5.07;;;;;;;;;;6096387;23;20025;-90
2022/05/08 05:05:35;;;;;;;16.83;5.07;;;;;;;;;;6122700;23;20017;-93
2022/05/08 05:08:01;;;;;;;17.40;5.32;;;;;;;;;;6124122;23;20014;-89
2022/05/08 05:10:28;;;;;;;21.38;5.32;;;;;;;;;;6148538;23;20625;-90
2022/05/08 05:12:54;;;;;;;24.23;5.30;;;;;;;;;;6123508;23;20018;-89
2022/05/08 05:15:20;;;;;;;17.75;5.00;;;;;;;;;;6148552;23;20100;-89
2022/05/08 05:17:48;;;;;;;14.23;5.43;;;;;;;;;;6148400;23;20653;-90
2022/05/08 05:20:14;;;;;;;16.02;5.47;;;;;;;;;;6123661;23;20123;-90
2022/05/08 05:22:40;;;;;;;11.98;5.00;;;;;;;;;;6147681;23;20018;-89
2022/05/08 05:25:07;;;;;;;17.75;5.25;;;;;;;;;;6099359;23;20108;-90
2022/05/08 05:27:33;;;;;;;18.38;5.47;;;;;;;;;;6147358;23;20325;-90
2022/05/08 05:29:59;;;;;;;16.38;5.30;;;;;;;;;;6147718;23;20097;-90
2022/05/08 05:32:26;;;;;;;19.20;5.32;;;;;;;;;;6149174;23;20029;-90
2022/05/08 05:34:52;;;;;;;12.68;5.38;;;;;;;;;;6149226;23;20021;-90
2022/05/08 05:37:19;;;;;;;22.65;5.55;;;;;;;;;;6147492;23;20456;-89
2022/05/08 05:39:45;;;;;;;19.17;5.93;;;;;;;;;;6147178;23;20594;-91
2022/05/08 05:42:11;;;;;;;14.65;5.88;;;;;;;;;;6147552;23;20070;-89
2022/05/08 05:44:38;;;;;;;15.30;5.40;;;;;;;;;;6147748;23;20010;-89
2022/05/08 05:49:49;;;;;;;19.02;5.18;;;;;;;;;;6147382;23;20072;-90
2022/05/08 05:52:16;;;;;;;18.65;5.05;;;;;;;;;;6147289;23;20355;-90
2022/05/08 05:54:42;;;;;;;18.30;4.85;;;;;;;;;;6097652;23;20350;-90
2022/05/08 05:57:08;;;;;;;15.68;4.05;;;;;;;;;;6097820;23;20014;-90
2022/05/08 05:59:34;;;;;;;14.82;3.63;;;;;;;;;;6097441;23;20017;-90
2022/05/08 06:02:00;;;;;;;17.90;4.10;;;;;;;;;;6145632;23;20501;-91
2022/05/08 06:04:27;;;;;;;16.65;4.50;;;;;;;;;;6096650;23;20010;-90
2022/05/08 06:06:53;;;;;;;13.93;3.35;;;;;;;;;;6120911;23;20506;-90
2022/05/08 06:09:19;;;;;;;13.07;3.47;;;;;;;;;;6099649;23;20010;-90
2022/05/08 06:11:45;;;;;;;21.80;3.80;;;;;;;;;;6095894;23;20451;-89
2022/05/08 06:14:12;;;;;;;11.85;3.60;;;;;;;;;;6096644;23;20020;-90
2022/05/08 06:16:38;;;;;;;12.25;3.90;;;;;;;;;;6095050;23;20490;-90
2022/05/08 06:19:08;;;;;;;17.80;3.55;;;;;;;;;;6094673;23;20018;-90
2022/05/08 06:21:34;;;;;;;14.85;3.55;;;;;;;;;;6145975;23;20501;-89
2022/05/08 06:24:00;;;;;;;12.50;3.20;;;;;;;;;;6094780;23;20021;-90
2022/05/08 06:26:26;;;;;;;17.55;3.38;;;;;;;;;;6094987;23;20092;-89
2022/05/08 06:28:55;;;;;;;10.43;2.65;;;;;;;;;;6140903;23;20025;-90
2022/05/08 06:31:21;;;;;;;15.80;2.58;;;;;;;;;;6094744;23;20021;-90
2022/05/08 06:33:47;;;;;;;14.55;3.08;;;;;;;;;;6096523;23;20017;-89
2022/05/08 06:36:13;;;;;;;13.40;3.22;;;;;;;;;;6093877;23;20014;-88
2022/05/08 06:38:40;;;;;;;17.63;3.03;;;;;;;;;;6135322;23;20025;-90
2022/05/08 06:41:06;;;;;;;18.98;3.13;;;;;;;;;;6143292;23;20105;-88
2022/05/08 06:43:32;;;;;;;15.80;3.10;;;;;;;;;;6116824;23;20049;-85
2022/05/08 06:45:58;;;;;;;15.15;2.40;;;;;;;;;;6137786;23;20010;-87
2022/05/08 06:48:27;;;;;;;17.73;3.00;;;;;;;;;;6137575;23;20089;-88
2022/05/08 06:50:53;;;;;;;12.90;2.72;;;;;;;;;;6136688;23;20046;-89
2022/05/08 06:53:22;;;;;;;11.85;2.40;;;;;;;;;;6136886;23;20826;-89
2022/05/08 06:55:48;;;;;;;9.35;2.05;;;;;;;;;;6140662;23;20503;-90
2022/05/08 06:58:15;;;;;;;12.65;2.42;;;;;;;;;;6141274;23;20349;-87
2022/05/08 07:03:26;;;;;;;12.93;2.00;;;;;;;;;;6138611;23;20463;-88
2022/05/08 07:05:54;;;;;;;11.73;2.08;;;;;;;;;;6139758;23;20014;-87
2022/05/08 07:08:20;;;;;;;8.77;2.22;;;;;;;;;;6090825;23;20053;-88
2022/05/08 07:10:46;;;;;;;14.45;2.00;;;;;;;;;;6137298;23;20139;-89
2022/05/08 07:13:16;;;;;;;14.88;2.70;;;;;;;;;;6090184;23;20021;-89
2022/05/08 07:15:43;;;;;;;11.75;2.42;;;;;;;;;;6139181;23;20014;-87
2022/05/08 07:18:09;;;;;;;11.13;2.70;;;;;;;;;;6093946;23;20496;-86
2022/05/08 07:20:35;;;;;;;14.98;2.85;;;;;;;;;;6086808;23;20025;-88
2022/05/08 07:23:01;;;;;;;16.35;2.80;;;;;;;;;;6088091;23;20018;-87
2022/05/08 07:25:30;;;;;;;10.02;2.00;;;;;;;;;;6088501;23;20065;-89
2022/05/08 07:28:16;;;;;;;11.82;2.30;;;;;;;;;;6090907;23;20696;-88
2022/05/08 07:33:37;;;;;;;13.10;2.47;;;;;;;;;;6095361;23;20021;-88
2022/05/08 07:36:25;;;;;;;16.13;2.53;;;;;;;;;;6139136;23;20018;-87
2022/05/08 07:38:51;;;;;;;14.73;2.45;;;;;;;;;;6141819;23;20021;-89
2022/05/08 07:41:27;;;;;;;12.02;2.50;;;;;;;;;;6141991;23;20026;-89
2022/05/08 07:44:07;;;;;;;16.42;2.75;;;;;;;;;;6138222;23;20057;-87
2022/05/08 07:46:50;;;;;;;12.40;2.40;;;;;;;;;;6117183;23;20017;-88
2022/05/08 07:49:16;;;;;;;11.15;2.10;;;;;;;;;;6139120;23;20022;-86
2022/05/08 07:51:49;;;;;;;17.42;2.00;;;;;;;;;;6092718;23;20021;-89
2022/05/08 07:54:36;;;;;;;12.45;2.40;;;;;;;;;;6091718;23;20105;-87
2022/05/08 07:57:03;;;;;;;8.65;2.53;;;;;;;;;;6092407;23;20049;-88
2022/05/08 07:59:29;;;;;;;9.82;2.00;;;;;;;;;;6142710;23;20014;-87
2022/05/08 08:02:25;;;;;;;9.60;2.30;;;;;;;;;;6116018;23;20085;-88
2022/05/08 08:04:55;;;;;;;19.10;2.60;;;;;;;;;;6082373;23;20022;-87
2022/05/08 08:07:22;;;;;;;13.98;2.75;;;;;;;;;;6140073;23;20487;-89
2022/05/08 08:09:53;;;;;;;9.27;2.45;;;;;;;;;;6086322;23;20014;-88
2022/05/08 08:12:27;;;;;;;15.70;2.65;;;;;;;;;;6089517;23;20368;-88
2022/05/08 08:15:16;;;;;;;14.50;2.60;;;;;;;;;;6142229;23;20085;-89
2022/05/08 08:21:25;;;;;;;13.30;2.42;;;;;;;;;;6005767;23;20027;-88
2022/05/08 08:24:12;;;;;;;16.80;2.80;;;;;;;;;;5960173;23;20139;-90
2022/05/08 08:42:51;;;;;;;10.60;2.40;;;;;;;;;;5912753;24;20717;-87
2022/05/08 08:51:43;;;;;;;13.20;2.50;;;;;;;;;;6078794;23;20077;-89
2022/05/08 08:57:45;;;;;;;14.88;2.53;;;;;;;;;;6121093;23;20014;-90
2022/05/08 09:40:42;;;;;;;7.43;2.10;;;;;;;;;;6144002;23;20011;-86
2022/05/08 10:26:03;;;;;;;11.23;2.72;;;;;;;;;;6176844;23;20637;-85
2022/05/08 10:32:39;;;;;;;14.25;3.13;;;;;;;;;;6142883;23;20080;-86
2022/05/08 10:35:26;;;;;;;17.08;3.05;;;;;;;;;;6117285;23;20025;-87
2022/05/08 10:45:55;;;;;;;12.68;2.25;;;;;;;;;;5939817;24;20052;-85
2022/05/08 10:52:31;;;;;;;8.18;2.47;;;;;;;;;;5910980;24;20032;-86
2022/05/08 10:55:16;;;;;;;12.43;2.00;;;;;;;;;;5892267;24;20018;-89
2022/05/08 10:57:55;;;;;;;9.07;2.03;;;;;;;;;;5899505;23;20802;-86
2022/05/08 11:01:04;;;;;;;;;;;;;;;;;;;;;
2022/05/08 11:03:35;;;;;;;13.68;2.13;;;;;;;;;;6137980;23;20018;-86
2022/05/08 11:06:27;;;;;;;11.32;2.35;;;;;;;;;;6116037;23;20439;-84
2022/05/08 11:09:00;;;;;;;10.25;2.38;;;;;;;;;;6064146;23;20021;-84
2022/05/08 11:11:26;;;;;;;;;;;;;;;;;;6121993;23;20068;-86
2022/05/08 11:13:53;;;;;;;13.48;2.42;;;;;;;;;;6117942;23;19916;-91
2022/05/08 11:16:41;;;;;;;21.35;3.03;;;;;;;;;;6119973;23;20514;-85
2022/05/08 11:19:35;;;;;;;;;;;;;;;;;;;;;
2022/05/08 11:25:12;;;;;;;9.90;2.30;;;;;;;;;;6120132;23;20053;-87
2022/05/08 11:28:20;;;;;;;8.68;2.00;;;;;;;;;;6117282;23;20013;-87
2022/05/08 11:54:32;;;;;;;13.60;2.55;;;;;;;;;;6199543;23;20024;-88
2022/05/08 11:58:09;;;;;;;11.23;2.78;;;;;;;;;;6117942;23;20040;-86
2022/05/08 12:14:32;;;;;;;10.43;2.13;;;;;;;;;;5912169;24;20025;-88
2022/05/08 12:27:19;;;;;;;10.77;2.25;;;;;;;;;;6151627;23;20036;-87
2022/05/08 12:30:14;;;;;;;15.65;2.83;;;;;;;;;;6125367;23;20069;-86
2022/05/08 12:36:21;;;;;;;11.02;2.63;;;;;;;;;;6118330;23;20239;-89
2022/05/08 12:39:07;;;;;;;12.18;2.35;;;;;;;;;;6124267;23;20028;-88
2022/05/08 12:42:01;;;;;;;;;;;;;;;;;;;;;
2022/05/08 12:44:49;;;;;;;;;;;;;;;;;;;;;
2022/05/08 12:47:21;;;;;;;13.27;2.33;;;;;;;;;;6095073;23;20065;-87
2022/05/08 12:49:49;;;;;;;11.90;2.13;;;;;;;;;;6117957;23;20643;-88
2022/05/08 12:52:15;;;;;;;7.22;2.15;;;;;;;;;;6071940;23;20718;-86
2022/05/08 12:54:45;;;;;;;8.43;2.20;;;;;;;;;;6122252;23;20025;-88
2022/05/08 12:57:11;;;;;;;8.90;2.20;;;;;;;;;;6120864;23;20017;-87
2022/05/08 12:59:53;;;;;;;10.50;2.22;;;;;;;;;;6122227;23;20025;-87
2022/05/08 13:02:41;;;;;;;7.88;2.20;;;;;;;;;;6108570;23;20028;-88
2022/05/08 13:05:13;;;;;;;8.48;2.03;;;;;;;;;;6078322;23;20395;-86
2022/05/08 13:07:47;;;;;;;6.40;1.85;;;;;;;;;;6122803;23;20045;-87
2022/05/08 13:10:24;;;;;;;10.27;2.03;;;;;;;;;;6120414;23;20017;-87
2022/05/08 13:13:02;;;;;;;6.35;2.08;;;;;;;;;;6120336;23;20029;-86
2022/05/08 13:15:34;;;;;;;13.60;1.98;;;;;;;;;;6072167;23;20021;-85
2022/05/08 13:18:00;;;;;;;10.23;2.13;;;;;;;;;;6074335;23;20021;-86
2022/05/08 13:23:16;;;;;;;6.90;2.08;;;;;;;;;;6119693;23;20079;-86
2022/05/08 13:25:42;;;;;;;6.97;2.50;;;;;;;;;;6119160;23;20013;-87
2022/05/08 13:28:11;;;;;;;7.82;2.00;;;;;;;;;;6093019;23;20040;-86
2022/05/08 13:30:40;;;;;;;10.80;3.10;;;;;;;;;;6092867;23;20014;-87
2022/05/08 13:33:16;;;;;;;;;;;;;;;;;;;;;
2022/05/08 13:35:48;;;;;;;8.15;2.50;;;;;;;;;;6120142;23;20041;-87
2022/05/08 13:38:24;;;;;;;7.30;2.10;;;;;;;;;;6074814;23;20023;-87
2022/05/08 13:40:51;;;;;;;10.27;2.20;;;;;;;;;;6119928;23;20052;-86
2022/05/08 13:43:18;;;;;;;10.05;1.80;;;;;;;;;;6118454;23;20020;-87
2022/05/08 13:45:45;;;;;;;10.90;2.35;;;;;;;;;;6118540;23;20040;-87
2022/05/08 13:48:12;;;;;;;9.00;2.20;;;;;;;;;;6120418;23;20014;-86
2022/05/08 13:50:45;;;;;;;7.28;2.00;;;;;;;;;;6119003;23;20009;-87
2022/05/08 13:53:11;;;;;;;4.85;1.75;;;;;;;;;;6116984;23;20017;-86
2022/05/08 13:55:38;;;;;;;8.98;2.22;;;;;;;;;;6066980;23;20013;-87
2022/05/08 13:58:11;;;;;;;5.20;1.45;;;;;;;;;;6119188;23;20096;-85
2022/05/08 14:00:40;;;;;;;7.30;2.00;;;;;;;;;;6115718;23;20029;-88
2022/05/08 14:03:09;;;;;;;6.22;1.50;;;;;;;;;;6120022;23;20016;-85
2022/05/08 14:05:36;;;;;;;9.88;2.35;;;;;;;;;;6073994;23;20017;-89
2022/05/08 14:08:03;;;;;;;15.18;2.10;;;;;;;;;;6122487;23;20013;-88
2022/05/08 14:10:29;;;;;;;9.18;2.17;;;;;;;;;;6122420;23;20010;-89
2022/05/08 14:12:56;;;;;;;8.75;2.10;;;;;;;;;;6122009;23;20029;-90
2022/05/08 14:15:26;;;;;;;8.75;2.08;;;;;;;;;;6071941;23;20018;-87
2022/05/08 14:17:52;;;;;;;4.65;1.88;;;;;;;;;;6069717;23;20025;-88
2022/05/08 14:20:18;;;;;;;6.63;1.70;;;;;;;;;;6116877;23;20017;-89
2022/05/08 14:22:44;;;;;;;6.78;2.20;;;;;;;;;;6116138;23;20013;-85
2022/05/08 14:25:11;;;;;;;11.73;2.10;;;;;;;;;;6072121;23;20018;-87
2022/05/08 14:27:37;;;;;;;9.48;2.50;;;;;;;;;;6074506;23;20010;-88
2022/05/08 14:30:09;;;;;;;8.85;1.90;;;;;;;;;;6074800;23;20410;-89
2022/05/08 14:38:12;;;;;;;8.27;2.45;;;;;;;;;;6124598;23;20068;-88
2022/05/08 14:40:38;;;;;;;10.95;2.42;;;;;;;;;;6124194;23;20010;-87
2022/05/08 14:43:06;;;;;;;11.07;1.98;;;;;;;;;;6124847;23;20021;-85
2022/05/08 14:45:32;;;;;;;12.45;1.95;;;;;;;;;;6131628;23;20018;-85
2022/05/08 14:47:58;;;;;;;10.27;2.50;;;;;;;;;;6079121;23;20072;-87
2022/05/08 14:50:26;;;;;;;12.18;2.17;;;;;;;;;;6127625;23;20099;-88
2022/05/08 14:52:51;;;;;;;8.00;2.20;;;6.10;99.90;;;;;;6124481;23;20640;-85
2022/05/08 14:55:17;;;;;;;9.98;1.90;;;;;;;;;;6074859;23;20072;-84
2022/05/08 14:57:43;;;;;;;10.75;2.45;;;;;;;;;;6122695;23;20045;-86
2022/05/08 15:00:10;;;;;;;9.60;2.15;;;;;;;;;;6076497;23;20100;-88
2022/05/08 15:02:36;;;;;;;11.88;2.60;;;;;;;;;;6077394;23;20018;-88
2022/05/08 15:05:02;;;;;;;10.48;2.20;;;;;;;;;;6100588;23;20067;-87
2022/05/08 15:07:28;;;;;;;12.85;3.33;;;;;;;;;;6125531;23;20589;-87
2022/05/08 15:09:55;;;;;;;8.15;2.22;;;;;;;;;;6125313;23;20010;-86
2022/05/08 15:12:21;;;;;;;12.20;3.20;;;;;;;;;;6076374;23;20020;-88
2022/05/08 15:14:47;;;;;;;11.23;2.47;;;;;;;;;;6077662;23;20490;-86
2022/05/08 15:17:13;;;;;;;8.02;2.25;;;;;;;;;;6078655;23;20020;-85
2022/05/08 15:19:39;;;;;;;8.00;2.35;;;;;;;;;;6074951;23;20014;-84
2022/05/08 15:22:06;;;;;;;11.93;2.30;;;;;;;;;;6099556;23;20021;-87
2022/05/08 15:24:32;;;;;;;9.23;1.95;;;;;;;;;;6121684;23;20013;-85
2022/05/08 15:26:58;;;;;;;8.88;1.83;;;17.60;47.40;;;;;;6076006;23;20020;-87
2022/05/08 15:29:24;;;;;;;10.85;2.30;;;;;;;;;;6074216;23;20013;-87
2022/05/08 15:31:50;;;;;;;8.10;2.38;;;;;;;;;;6073374;23;20020;-86
2022/05/08 15:34:16;;;;;;;9.48;1.85;;;;;;;;;;6076542;23;20018;-85
2022/05/08 15:36:43;;;;;;;6.20;1.77;;;;;;;;;;6075463;23;20021;-87
2022/05/08 15:39:09;;;;;;;9.68;2.10;;;;;;;;;;6125973;23;20040;-86
2022/05/08 15:41:37;;;;;;;8.13;1.88;;;;;;;;;;6125347;23;20371;-87
2022/05/08 15:44:03;;;;;;;12.57;2.45;;;;;;;;;;6077384;23;20010;-86
2022/05/08 15:46:29;;;;;;;13.18;2.30;;;;;;;;;;6124908;23;20017;-86
2022/05/08 15:48:55;;;;;;;10.65;2.38;;;;;;;;;;6075808;23;20359;-87
2022/05/08 15:51:22;;;;;;;10.10;2.25;;;;;;;;;;6079766;23;20471;-86
2022/05/08 15:53:48;;;;;;;12.55;2.47;;;;;;;;;;6075778;23;20139;-86
2022/05/08 15:56:17;;;;;;;12.85;3.03;;;;;;;;;;6074923;23;20100;-88
2022/05/08 15:58:44;;;;;;;10.10;2.33;;;;;;;;;;6123361;23;20549;-88
2022/05/08 16:01:10;;;;;;;13.38;2.53;;;16.40;47.10;;;;;;6075703;23;20013;-86
2022/05/08 16:03:36;;;;;;;9.30;2.42;;;16.50;49.60;;;;;;6076025;23;20020;-86
2022/05/08 16:06:04;;;;;;;14.43;3.42;;;16.40;49.60;;;;;;6075406;23;20013;-87
2022/05/08 16:08:30;;;;;;;14.68;2.72;;;16.20;49.40;;;;;;6099159;23;20014;-88
2022/05/08 16:10:56;;;;;;;12.38;2.38;;;16.00;49.90;;;;;;6099024;23;20014;-87
2022/05/08 16:24:20;;;;;;;12.80;2.78;;;15.50;51.10;;;;;;6084014;23;20017;-86
2022/05/08 16:26:46;;;;;;;11.75;2.80;;;15.30;52.00;;;;;;6075165;23;20110;-89
2022/05/08 16:29:12;;;;;;;10.80;2.97;;;15.30;52.70;;;;;;6075351;23;20013;-87
2022/05/08 16:31:38;;;;;;;13.52;3.30;;;15.30;52.20;;;;;;6077297;23;20009;-87
2022/05/08 16:34:06;;;;;;;10.38;2.40;;;15.20;52.40;;;;;;6075130;23;20093;-87
2022/05/08 16:36:31;;;;;;;8.35;2.45;;;15.30;52.60;;;;;;6075528;23;20451;-87
2022/05/08 16:38:57;;;;;;;11.18;2.80;;;15.50;52.90;;;;;;6075572;23;20020;-88
2022/05/08 16:41:24;;;;;;;13.00;2.55;;;16.20;52.30;;;;;;6074737;23;20017;-88
2022/05/08 16:43:53;;;;;;;12.88;2.83;;;16.50;52.10;;;;;;6074463;23;20616;-87
2022/05/08 16:46:20;;;;;;;11.80;2.50;;;16.60;52.60;;;;;;6076618;23;20784;-87
2022/05/08 16:48:46;;;;;;;9.25;2.80;;;16.30;51.80;;;;;;6075579;23;20028;-87
2022/05/08 16:51:15;;;;;;;10.73;2.50;;;16.00;52.20;;;;;;6075602;23;20097;-88
2022/05/08 16:53:41;;;;;;;11.23;2.83;;;15.80;52.50;;;;;;6071928;23;20048;-88
2022/05/08 16:56:10;;;;;;;12.38;2.75;;;15.70;53.00;;;;;;6075120;23;20017;-86
2022/05/08 16:58:36;;;;;;;7.10;2.15;;;15.70;53.10;;;;;;6098545;23;20669;-87
2022/05/08 17:01:01;;;;;;;14.35;2.25;;;15.60;53.30;;;;;;6076625;23;20014;-87
2022/05/08 17:03:28;;;;;;;11.10;2.08;;;15.50;53.60;;;;;;6101337;23;20083;-86
2022/05/08 17:05:55;;;;;;;12.98;2.17;;;;;;;;;;6100845;23;20024;-86
2022/05/08 17:08:21;;;;;;;15.85;2.65;;;;;;;;;;6124361;23;20010;-87
2022/05/08 17:10:47;;;;;;;11.98;2.80;;;;;;;;;;6125230;23;20040;-89
2022/05/08 17:13:13;;;;;;;12.65;2.83;;;;;;;;;;6075849;23;20642;-86
2022/05/08 17:15:41;;;;;;;11.25;2.65;;;;;;;;;;6123622;23;20018;-88
2022/05/08 17:18:11;;;;;;;12.57;3.88;;;;;;;;;;6076997;23;20132;-86
2022/05/08 17:20:37;;;;;;;16.50;2.90;;;;;;;;;;6125225;23;20043;-86
2022/05/08 17:23:04;;;;;;;12.23;2.33;;;;;;;;;;6123984;23;20093;-85
2022/05/08 17:25:30;;;;;;;10.55;2.50;;;;;;;;;;6124567;23;20021;-88
2022/05/08 17:30:41;;;;;;;14.10;2.90;;;;;;;;;;6126910;23;20021;-88
2022/05/08 17:33:07;;;;;;;13.95;2.63;;;;;;;;;;6124204;23;20399;-86
2022/05/08 17:35:35;;;;;;;12.98;3.13;;;;;;;;;;6077740;23;20444;-86
2022/05/08 17:38:01;;;;;;;10.88;2.45;;;;;;;;;;6075928;23;20052;-89
2022/05/08 17:40:31;;;;;;;13.13;3.10;;;;;;;;;;6075280;23;20025;-87
2022/05/08 17:42:57;;;;;;;12.38;3.00;;;;;;;;;;6075810;23;20567;-85
2022/05/08 17:45:23;;;;;;;11.90;2.72;;;;;;;;;;6076439;23;20443;-85
2022/05/08 17:47:49;;;;;;;15.38;2.75;;;;;;;;;;6100548;23;20024;-89
2022/05/08 17:50:15;;;;;;;10.40;2.58;;;;;;;;;;6075433;23;20068;-87
2022/05/08 17:52:43;;;;;;;15.00;2.83;;;;;;;;;;6123777;23;20013;-85
2022/05/08 17:55:10;;;;;;;10.57;2.75;;;;;;;;;;6076711;23;20010;-87
2022/05/08 17:57:37;;;;;;;14.30;2.85;;;;;;;;;;6121007;23;20010;-90